sensor_id;sensor_type;location;lat;lon;timestamp;temperature;humidity
69546;SHT31;56766;52.260;20.746;2023-02-28T00:01:32;-2.57;72.70
69546;SHT31;56766;52.260;20.746;2023-02-28T00:04:00;-2.58;72.72
69546;SHT31;56766;52.260;20.746;2023-02-28T00:06:27;-2.62;72.79
69546;SHT31;56766;52.260;20.746;2023-02-28T00:08:54;-2.68;72.83
69546;SHT31;56766;52.260;20.746;2023-02-28T00:11:22;-2.74;73.01
69546;SHT31;56766;52.260;20.746;2023-02-28T00:13:49;-2.77;73.09
69546;SHT31;56766;52.260;20.746;2023-02-28T00:16:19;-2.82;73.21
69546;SHT31;56766;52.260;20.746;2023-02-28T00:18:51;-2.85;73.52
69546;SHT31;56766;52.260;20.746;2023-02-28T00:21:19;-2.89;73.66
69546;SHT31;56766;52.260;20.746;2023-02-28T00:23:47;-2.96;73.77
69546;SHT31;56766;52.260;20.746;2023-02-28T00:26:14;-3.02;73.92
69546;SHT31;56766;52.260;20.746;2023-02-28T00:28:40;-3.04;74.09
69546;SHT31;56766;52.260;20.746;2023-02-28T00:31:07;-3.07;74.11
69546;SHT31;56766;52.260;20.746;2023-02-28T00:33:34;-3.10;74.12
69546;SHT31;56766;52.260;20.746;2023-02-28T00:36:03;-3.11;74.17
69546;SHT31;56766;52.260;20.746;2023-02-28T00:38:33;-3.13;74.31
69546;SHT31;56766;52.260;20.746;2023-02-28T00:41:01;-3.14;74.50
69546;SHT31;56766;52.260;20.746;2023-02-28T00:43:36;-3.11;74.46
69546;SHT31;56766;52.260;20.746;2023-02-28T00:46:04;-3.10;74.40
69546;SHT31;56766;52.260;20.746;2023-02-28T00:48:32;-3.13;74.46
69546;SHT31;56766;52.260;20.746;2023-02-28T00:50:59;-3.16;74.56
69546;SHT31;56766;52.260;20.746;2023-02-28T00:53:27;-3.22;74.74
69546;SHT31;56766;52.260;20.746;2023-02-28T00:55:54;-3.32;74.98
69546;SHT31;56766;52.260;20.746;2023-02-28T00:58:21;-3.42;75.20
69546;SHT31;56766;52.260;20.746;2023-02-28T01:00:48;-3.49;75.36
69546;SHT31;56766;52.260;20.746;2023-02-28T01:03:17;-3.54;75.59
69546;SHT31;56766;52.260;20.746;2023-02-28T01:05:45;-3.57;75.70
69546;SHT31;56766;52.260;20.746;2023-02-28T01:08:14;-3.57;75.64
69546;SHT31;56766;52.260;20.746;2023-02-28T01:10:42;-3.61;75.80
69546;SHT31;56766;52.260;20.746;2023-02-28T01:13:09;-3.62;76.02
69546;SHT31;56766;52.260;20.746;2023-02-28T01:15:38;-3.61;76.05
69546;SHT31;56766;52.260;20.746;2023-02-28T01:18:09;-3.63;76.03
69546;SHT31;56766;52.260;20.746;2023-02-28T01:20:37;-3.74;76.38
69546;SHT31;56766;52.260;20.746;2023-02-28T01:23:04;-3.84;76.80
69546;SHT31;56766;52.260;20.746;2023-02-28T01:25:34;-3.94;77.14
69546;SHT31;56766;52.260;20.746;2023-02-28T01:28:02;-3.98;77.27
69546;SHT31;56766;52.260;20.746;2023-02-28T01:30:29;-4.02;77.39
69546;SHT31;56766;52.260;20.746;2023-02-28T01:32:56;-4.10;77.54
69546;SHT31;56766;52.260;20.746;2023-02-28T01:35:23;-4.14;77.66
69546;SHT31;56766;52.260;20.746;2023-02-28T01:37:50;-4.18;77.66
69546;SHT31;56766;52.260;20.746;2023-02-28T01:40:16;-4.22;77.68
69546;SHT31;56766;52.260;20.746;2023-02-28T01:42:43;-4.27;77.68
69546;SHT31;56766;52.260;20.746;2023-02-28T01:45:27;-4.30;77.79
69546;SHT31;56766;52.260;20.746;2023-02-28T01:48:06;-4.32;77.85
69546;SHT31;56766;52.260;20.746;2023-02-28T01:50:40;-4.27;77.85
69546;SHT31;56766;52.260;20.746;2023-02-28T01:53:14;-4.26;77.64
69546;SHT31;56766;52.260;20.746;2023-02-28T01:55:50;-4.29;77.70
69546;SHT31;56766;52.260;20.746;2023-02-28T01:58:20;-4.32;77.70
69546;SHT31;56766;52.260;20.746;2023-02-28T02:00:48;-4.39;77.78
69546;SHT31;56766;52.260;20.746;2023-02-28T02:03:18;-4.42;77.95
69546;SHT31;56766;52.260;20.746;2023-02-28T02:05:46;-4.46;78.07
69546;SHT31;56766;52.260;20.746;2023-02-28T02:08:19;-4.49;78.22
69546;SHT31;56766;52.260;20.746;2023-02-28T02:10:52;-4.48;78.25
69546;SHT31;56766;52.260;20.746;2023-02-28T02:36:35;-4.64;78.70
69546;SHT31;56766;52.260;20.746;2023-02-28T02:45:37;-4.80;78.97
69546;SHT31;56766;52.260;20.746;2023-02-28T02:48:12;-4.83;79.19
69546;SHT31;56766;52.260;20.746;2023-02-28T02:50:50;-4.87;79.46
69546;SHT31;56766;52.260;20.746;2023-02-28T02:53:27;-4.89;79.59
69546;SHT31;56766;52.260;20.746;2023-02-28T02:56:10;-4.88;79.60
69546;SHT31;56766;52.260;20.746;2023-02-28T02:58:43;-4.86;79.53
69546;SHT31;56766;52.260;20.746;2023-02-28T03:01:20;-4.90;79.49
69546;SHT31;56766;52.260;20.746;2023-02-28T03:04:02;-4.93;79.61
69546;SHT31;56766;52.260;20.746;2023-02-28T03:06:32;-4.91;79.60
69546;SHT31;56766;52.260;20.746;2023-02-28T03:09:00;-4.89;79.54
69546;SHT31;56766;52.260;20.746;2023-02-28T03:11:27;-4.88;79.47
69546;SHT31;56766;52.260;20.746;2023-02-28T03:14:30;-4.84;79.39
69546;SHT31;56766;52.260;20.746;2023-02-28T03:17:51;-4.85;79.38
69546;SHT31;56766;52.260;20.746;2023-02-28T03:26:18;-4.85;79.21
69546;SHT31;56766;52.260;20.746;2023-02-28T03:29:09;-4.88;79.21
69546;SHT31;56766;52.260;20.746;2023-02-28T03:32:17;-4.82;79.27
69546;SHT31;56766;52.260;20.746;2023-02-28T03:35:09;-4.77;79.10
69546;SHT31;56766;52.260;20.746;2023-02-28T03:37:43;-4.84;79.04
69546;SHT31;56766;52.260;20.746;2023-02-28T03:40:16;-4.88;79.09
69546;SHT31;56766;52.260;20.746;2023-02-28T03:42:53;-4.93;79.02
69546;SHT31;56766;52.260;20.746;2023-02-28T03:45:29;-4.98;79.09
69546;SHT31;56766;52.260;20.746;2023-02-28T03:50:52;-5.05;79.29
69546;SHT31;56766;52.260;20.746;2023-02-28T03:56:27;-5.08;79.39
69546;SHT31;56766;52.260;20.746;2023-02-28T03:59:48;-5.08;79.30
69546;SHT31;56766;52.260;20.746;2023-02-28T04:02:20;-5.06;79.38
69546;SHT31;56766;52.260;20.746;2023-02-28T04:04:47;-4.97;79.45
69546;SHT31;56766;52.260;20.746;2023-02-28T04:07:16;-4.91;79.01
69546;SHT31;56766;52.260;20.746;2023-02-28T04:09:43;-4.97;78.73
69546;SHT31;56766;52.260;20.746;2023-02-28T04:12:10;-5.08;78.87
69546;SHT31;56766;52.260;20.746;2023-02-28T04:14:37;-5.12;78.96
69546;SHT31;56766;52.260;20.746;2023-02-28T04:17:04;-5.12;79.09
69546;SHT31;56766;52.260;20.746;2023-02-28T04:19:30;-5.09;79.06
69546;SHT31;56766;52.260;20.746;2023-02-28T04:21:57;-5.11;79.00
69546;SHT31;56766;52.260;20.746;2023-02-28T04:24:27;-5.17;79.01
69546;SHT31;56766;52.260;20.746;2023-02-28T04:26:56;-5.17;79.18
69546;SHT31;56766;52.260;20.746;2023-02-28T04:29:29;-5.12;79.01
69546;SHT31;56766;52.260;20.746;2023-02-28T04:32:02;-5.14;78.86
69546;SHT31;56766;52.260;20.746;2023-02-28T04:34:30;-5.29;78.85
69546;SHT31;56766;52.260;20.746;2023-02-28T04:36:58;-5.33;79.09
69546;SHT31;56766;52.260;20.746;2023-02-28T04:39:26;-5.32;79.14
69546;SHT31;56766;52.260;20.746;2023-02-28T04:41:53;-5.32;79.14
69546;SHT31;56766;52.260;20.746;2023-02-28T04:44:20;-5.33;79.20
69546;SHT31;56766;52.260;20.746;2023-02-28T04:46:48;-5.26;79.28
69546;SHT31;56766;52.260;20.746;2023-02-28T04:49:16;-5.22;78.93
69546;SHT31;56766;52.260;20.746;2023-02-28T04:51:43;-5.27;79.02
69546;SHT31;56766;52.260;20.746;2023-02-28T04:54:10;-5.26;79.07
69546;SHT31;56766;52.260;20.746;2023-02-28T04:56:36;-5.33;79.00
69546;SHT31;56766;52.260;20.746;2023-02-28T04:59:03;-5.34;79.10
69546;SHT31;56766;52.260;20.746;2023-02-28T05:01:33;-5.34;79.17
69546;SHT31;56766;52.260;20.746;2023-02-28T05:04:02;-5.37;79.23
69546;SHT31;56766;52.260;20.746;2023-02-28T05:06:34;-5.42;79.38
69546;SHT31;56766;52.260;20.746;2023-02-28T05:09:01;-5.49;79.60
69546;SHT31;56766;52.260;20.746;2023-02-28T05:11:33;-5.54;79.75
69546;SHT31;56766;52.260;20.746;2023-02-28T05:14:06;-5.61;79.86
69546;SHT31;56766;52.260;20.746;2023-02-28T05:16:36;-5.66;80.04
69546;SHT31;56766;52.260;20.746;2023-02-28T05:19:03;-5.68;80.15
69546;SHT31;56766;52.260;20.746;2023-02-28T05:21:41;-5.70;80.22
69546;SHT31;56766;52.260;20.746;2023-02-28T05:24:16;-5.75;80.36
69546;SHT31;56766;52.260;20.746;2023-02-28T05:26:51;-5.78;80.52
69546;SHT31;56766;52.260;20.746;2023-02-28T05:29:19;-5.78;80.64
69546;SHT31;56766;52.260;20.746;2023-02-28T05:31:47;-5.78;80.70
69546;SHT31;56766;52.260;20.746;2023-02-28T05:34:14;-5.75;80.78
69546;SHT31;56766;52.260;20.746;2023-02-28T05:36:42;-5.70;80.80
69546;SHT31;56766;52.260;20.746;2023-02-28T05:39:10;-5.61;80.71
69546;SHT31;56766;52.260;20.746;2023-02-28T05:41:43;-5.58;80.57
69546;SHT31;56766;52.260;20.746;2023-02-28T05:44:10;-5.61;80.69
69546;SHT31;56766;52.260;20.746;2023-02-28T05:46:37;-5.62;80.76
69546;SHT31;56766;52.260;20.746;2023-02-28T05:49:04;-5.61;80.80
69546;SHT31;56766;52.260;20.746;2023-02-28T05:51:31;-5.59;80.84
69546;SHT31;56766;52.260;20.746;2023-02-28T05:53:59;-5.54;80.84
69546;SHT31;56766;52.260;20.746;2023-02-28T05:56:28;-5.48;80.84
69546;SHT31;56766;52.260;20.746;2023-02-28T05:58:55;-5.40;80.69
69546;SHT31;56766;52.260;20.746;2023-02-28T06:01:23;-5.32;80.67
69546;SHT31;56766;52.260;20.746;2023-02-28T06:03:50;-5.27;80.64
69546;SHT31;56766;52.260;20.746;2023-02-28T06:06:17;-5.21;80.67
69546;SHT31;56766;52.260;20.746;2023-02-28T06:08:44;-5.09;80.61
69546;SHT31;56766;52.260;20.746;2023-02-28T06:11:12;-4.98;80.48
69546;SHT31;56766;52.260;20.746;2023-02-28T06:13:39;-4.93;80.40
69546;SHT31;56766;52.260;20.746;2023-02-28T06:16:06;-4.93;80.48
69546;SHT31;56766;52.260;20.746;2023-02-28T06:18:34;-4.88;80.66
69546;SHT31;56766;52.260;20.746;2023-02-28T06:21:00;-4.80;80.62
69546;SHT31;56766;52.260;20.746;2023-02-28T06:23:27;-4.73;80.67
69546;SHT31;56766;52.260;20.746;2023-02-28T06:25:54;-4.67;80.79
69546;SHT31;56766;52.260;20.746;2023-02-28T06:28:25;-4.59;80.90
69546;SHT31;56766;52.260;20.746;2023-02-28T06:30:52;-4.50;80.90
69546;SHT31;56766;52.260;20.746;2023-02-28T06:33:19;-4.39;80.81
69546;SHT31;56766;52.260;20.746;2023-02-28T06:35:52;-4.25;80.71
69546;SHT31;56766;52.260;20.746;2023-02-28T06:38:19;-4.07;80.59
69546;SHT31;56766;52.260;20.746;2023-02-28T06:40:53;-3.86;80.39
69546;SHT31;56766;52.260;20.746;2023-02-28T06:43:22;-3.69;80.16
69546;SHT31;56766;52.260;20.746;2023-02-28T06:45:50;-3.51;80.00
69546;SHT31;56766;52.260;20.746;2023-02-28T06:48:20;-3.33;79.68
69546;SHT31;56766;52.260;20.746;2023-02-28T06:50:46;-3.15;79.45
69546;SHT31;56766;52.260;20.746;2023-02-28T06:53:13;-2.97;79.16
69546;SHT31;56766;52.260;20.746;2023-02-28T06:55:41;-2.79;78.92
69546;SHT31;56766;52.260;20.746;2023-02-28T06:58:08;-2.64;78.57
69546;SHT31;56766;52.260;20.746;2023-02-28T07:00:45;-2.44;78.36
69546;SHT31;56766;52.260;20.746;2023-02-28T07:03:16;-2.23;78.00
69546;SHT31;56766;52.260;20.746;2023-02-28T07:05:44;-2.05;77.65
69546;SHT31;56766;52.260;20.746;2023-02-28T07:08:11;-1.87;77.38
69546;SHT31;56766;52.260;20.746;2023-02-28T07:10:39;-1.68;77.20
69546;SHT31;56766;52.260;20.746;2023-02-28T07:13:08;-1.48;76.97
69546;SHT31;56766;52.260;20.746;2023-02-28T07:15:36;-1.27;76.70
69546;SHT31;56766;52.260;20.746;2023-02-28T07:18:04;-1.05;76.29
69546;SHT31;56766;52.260;20.746;2023-02-28T07:20:31;-0.85;76.11
69546;SHT31;56766;52.260;20.746;2023-02-28T07:22:57;-0.64;76.14
69546;SHT31;56766;52.260;20.746;2023-02-28T07:25:26;-0.44;75.53
69546;SHT31;56766;52.260;20.746;2023-02-28T07:27:56;-0.25;75.31
69546;SHT31;56766;52.260;20.746;2023-02-28T07:30:23;-0.06;75.24
69546;SHT31;56766;52.260;20.746;2023-02-28T07:32:49;0.16;75.01
69546;SHT31;56766;52.260;20.746;2023-02-28T07:35:16;0.34;74.74
69546;SHT31;56766;52.260;20.746;2023-02-28T07:37:43;0.49;74.63
69546;SHT31;56766;52.260;20.746;2023-02-28T07:40:11;0.69;74.71
69546;SHT31;56766;52.260;20.746;2023-02-28T07:42:39;0.92;74.44
69546;SHT31;56766;52.260;20.746;2023-02-28T07:45:09;1.10;74.00
69546;SHT31;56766;52.260;20.746;2023-02-28T07:47:38;1.22;73.20
69546;SHT31;56766;52.260;20.746;2023-02-28T07:50:07;1.35;72.85
69546;SHT31;56766;52.260;20.746;2023-02-28T07:52:37;1.48;72.73
69546;SHT31;56766;52.260;20.746;2023-02-28T07:55:07;1.57;72.45
69546;SHT31;56766;52.260;20.746;2023-02-28T07:57:35;1.74;72.32
69546;SHT31;56766;52.260;20.746;2023-02-28T08:00:06;1.89;71.74
69546;SHT31;56766;52.260;20.746;2023-02-28T08:02:39;1.98;71.30
69546;SHT31;56766;52.260;20.746;2023-02-28T08:05:07;2.08;70.72
69546;SHT31;56766;52.260;20.746;2023-02-28T08:07:34;2.20;70.66
69546;SHT31;56766;52.260;20.746;2023-02-28T08:10:00;2.37;70.44
69546;SHT31;56766;52.260;20.746;2023-02-28T08:12:27;2.51;69.77
69546;SHT31;56766;52.260;20.746;2023-02-28T08:14:54;2.65;69.64
69546;SHT31;56766;52.260;20.746;2023-02-28T08:17:20;2.76;68.68
69546;SHT31;56766;52.260;20.746;2023-02-28T08:19:47;2.86;68.80
69546;SHT31;56766;52.260;20.746;2023-02-28T08:22:14;2.98;68.20
69546;SHT31;56766;52.260;20.746;2023-02-28T08:24:41;3.08;67.70
69546;SHT31;56766;52.260;20.746;2023-02-28T08:27:09;3.17;66.80
69546;SHT31;56766;52.260;20.746;2023-02-28T08:29:37;3.25;66.55
69546;SHT31;56766;52.260;20.746;2023-02-28T08:32:06;3.31;66.70
69546;SHT31;56766;52.260;20.746;2023-02-28T08:34:33;3.38;65.87
69546;SHT31;56766;52.260;20.746;2023-02-28T08:37:00;3.37;64.87
69546;SHT31;56766;52.260;20.746;2023-02-28T08:39:26;3.37;64.42
69546;SHT31;56766;52.260;20.746;2023-02-28T08:41:53;3.33;63.59
69546;SHT31;56766;52.260;20.746;2023-02-28T08:44:20;3.31;63.37
69546;SHT31;56766;52.260;20.746;2023-02-28T08:46:46;3.37;63.88
69546;SHT31;56766;52.260;20.746;2023-02-28T08:49:13;3.49;64.13
69546;SHT31;56766;52.260;20.746;2023-02-28T08:51:40;3.52;63.20
69546;SHT31;56766;52.260;20.746;2023-02-28T08:54:07;3.49;61.39
69546;SHT31;56766;52.260;20.746;2023-02-28T08:56:34;3.47;62.24
69546;SHT31;56766;52.260;20.746;2023-02-28T08:59:02;3.50;60.96
69546;SHT31;56766;52.260;20.746;2023-02-28T09:01:30;3.55;61.50
69546;SHT31;56766;52.260;20.746;2023-02-28T09:03:58;3.61;61.77
69546;SHT31;56766;52.260;20.746;2023-02-28T09:06:26;3.71;61.92
69546;SHT31;56766;52.260;20.746;2023-02-28T09:08:57;3.80;62.63
69546;SHT31;56766;52.260;20.746;2023-02-28T09:11:25;3.88;61.28
69546;SHT31;56766;52.260;20.746;2023-02-28T09:13:52;3.97;61.74
69546;SHT31;56766;52.260;20.746;2023-02-28T09:16:19;4.07;62.08
69546;SHT31;56766;52.260;20.746;2023-02-28T09:18:46;4.15;60.98
69546;SHT31;56766;52.260;20.746;2023-02-28T09:21:16;4.21;61.04
69546;SHT31;56766;52.260;20.746;2023-02-28T09:23:47;4.31;61.40
69546;SHT31;56766;52.260;20.746;2023-02-28T09:26:18;4.39;61.05
69546;SHT31;56766;52.260;20.746;2023-02-28T09:28:51;4.45;60.88
69546;SHT31;56766;52.260;20.746;2023-02-28T09:31:26;4.51;60.83
69546;SHT31;56766;52.260;20.746;2023-02-28T09:33:56;4.53;60.76
69546;SHT31;56766;52.260;20.746;2023-02-28T09:36:25;4.57;60.15
69546;SHT31;56766;52.260;20.746;2023-02-28T09:38:54;4.63;60.33
69546;SHT31;56766;52.260;20.746;2023-02-28T09:41:23;4.65;60.22
69546;SHT31;56766;52.260;20.746;2023-02-28T09:44:01;4.72;60.00
69546;SHT31;56766;52.260;20.746;2023-02-28T09:46:39;4.73;60.13
69546;SHT31;56766;52.260;20.746;2023-02-28T09:49:25;4.74;59.75
69546;SHT31;56766;52.260;20.746;2023-02-28T09:52:24;4.72;59.99
69546;SHT31;56766;52.260;20.746;2023-02-28T09:55:08;4.73;60.48
69546;SHT31;56766;52.260;20.746;2023-02-28T09:58:00;4.75;60.30
69546;SHT31;56766;52.260;20.746;2023-02-28T10:00:35;4.83;60.66
69546;SHT31;56766;52.260;20.746;2023-02-28T10:03:47;4.84;60.18
69546;SHT31;56766;52.260;20.746;2023-02-28T10:06:50;4.81;58.69
69546;SHT31;56766;52.260;20.746;2023-02-28T10:09:22;4.72;59.13
69546;SHT31;56766;52.260;20.746;2023-02-28T10:12:00;4.80;60.27
69546;SHT31;56766;52.260;20.746;2023-02-28T10:14:33;4.94;60.08
69546;SHT31;56766;52.260;20.746;2023-02-28T10:17:08;4.99;60.00
69546;SHT31;56766;52.260;20.746;2023-02-28T10:20:04;4.94;60.02
69546;SHT31;56766;52.260;20.746;2023-02-28T10:22:57;4.97;59.80
69546;SHT31;56766;52.260;20.746;2023-02-28T10:25:29;5.01;60.01
69546;SHT31;56766;52.260;20.746;2023-02-28T10:28:08;5.05;59.85
69546;SHT31;56766;52.260;20.746;2023-02-28T10:30:50;5.09;59.50
69546;SHT31;56766;52.260;20.746;2023-02-28T10:33:32;5.08;59.59
69546;SHT31;56766;52.260;20.746;2023-02-28T10:36:01;5.09;59.40
69546;SHT31;56766;52.260;20.746;2023-02-28T10:38:37;5.07;58.47
69546;SHT31;56766;52.260;20.746;2023-02-28T10:41:14;5.01;58.51
69546;SHT31;56766;52.260;20.746;2023-02-28T10:44:15;5.03;59.30
69546;SHT31;56766;52.260;20.746;2023-02-28T10:46:48;5.05;59.08
69546;SHT31;56766;52.260;20.746;2023-02-28T10:49:21;5.09;59.55
69546;SHT31;56766;52.260;20.746;2023-02-28T10:52:00;5.17;59.72
69546;SHT31;56766;52.260;20.746;2023-02-28T10:54:36;5.25;59.17
69546;SHT31;56766;52.260;20.746;2023-02-28T10:57:20;5.28;59.15
69546;SHT31;56766;52.260;20.746;2023-02-28T11:00:07;5.26;59.10
69546;SHT31;56766;52.260;20.746;2023-02-28T11:02:49;5.22;58.74
69546;SHT31;56766;52.260;20.746;2023-02-28T11:05:24;5.21;58.96
69546;SHT31;56766;52.260;20.746;2023-02-28T11:08:03;5.21;59.52
69546;SHT31;56766;52.260;20.746;2023-02-28T11:10:33;5.22;59.56
69546;SHT31;56766;52.260;20.746;2023-02-28T11:13:02;5.26;59.74
69546;SHT31;56766;52.260;20.746;2023-02-28T11:15:33;5.29;59.62
69546;SHT31;56766;52.260;20.746;2023-02-28T11:21:02;5.27;59.13
69546;SHT31;56766;52.260;20.746;2023-02-28T11:23:32;5.24;59.77
69546;SHT31;56766;52.260;20.746;2023-02-28T11:26:03;5.23;59.63
69546;SHT31;56766;52.260;20.746;2023-02-28T11:28:41;5.22;59.81
69546;SHT31;56766;52.260;20.746;2023-02-28T11:33:52;5.23;59.34
69546;SHT31;56766;52.260;20.746;2023-02-28T11:36:32;5.19;58.91
69546;SHT31;56766;52.260;20.746;2023-02-28T11:39:04;5.17;59.33
69546;SHT31;56766;52.260;20.746;2023-02-28T11:47:34;5.40;60.49
69546;SHT31;56766;52.260;20.746;2023-02-28T11:50:20;5.43;59.45
69546;SHT31;56766;52.260;20.746;2023-02-28T11:53:17;5.43;59.65
69546;SHT31;56766;52.260;20.746;2023-02-28T11:56:08;5.34;59.44
69546;SHT31;56766;52.260;20.746;2023-02-28T12:02:17;5.32;60.57
69546;SHT31;56766;52.260;20.746;2023-02-28T12:05:34;5.42;60.22
69546;SHT31;56766;52.260;20.746;2023-02-28T12:22:31;5.34;59.80
69546;SHT31;56766;52.260;20.746;2023-02-28T12:27:38;5.33;59.71
69546;SHT31;56766;52.260;20.746;2023-02-28T12:30:22;5.34;60.55
69546;SHT31;56766;52.260;20.746;2023-02-28T12:33:02;5.38;60.38
69546;SHT31;56766;52.260;20.746;2023-02-28T12:35:51;5.40;60.43
69546;SHT31;56766;52.260;20.746;2023-02-28T12:38:40;5.39;59.71
69546;SHT31;56766;52.260;20.746;2023-02-28T12:41:39;5.37;59.94
69546;SHT31;56766;52.260;20.746;2023-02-28T12:44:45;5.41;59.31
69546;SHT31;56766;52.260;20.746;2023-02-28T12:47:17;5.40;59.17
69546;SHT31;56766;52.260;20.746;2023-02-28T12:49:52;5.37;60.05
69546;SHT31;56766;52.260;20.746;2023-02-28T12:59:07;5.30;58.15
69546;SHT31;56766;52.260;20.746;2023-02-28T13:04:47;5.16;56.67
69546;SHT31;56766;52.260;20.746;2023-02-28T13:10:47;5.07;56.13
69546;SHT31;56766;52.260;20.746;2023-02-28T13:13:26;5.01;55.92
69546;SHT31;56766;52.260;20.746;2023-02-28T13:16:08;4.95;56.31
69546;SHT31;56766;52.260;20.746;2023-02-28T13:18:45;4.93;56.04
69546;SHT31;56766;52.260;20.746;2023-02-28T13:21:28;4.93;56.43
69546;SHT31;56766;52.260;20.746;2023-02-28T13:24:02;4.96;57.26
69546;SHT31;56766;52.260;20.746;2023-02-28T13:34:46;4.85;57.15
69546;SHT31;56766;52.260;20.746;2023-02-28T13:37:42;4.84;56.93
69546;SHT31;56766;52.260;20.746;2023-02-28T13:42:47;4.73;56.19
69546;SHT31;56766;52.260;20.746;2023-02-28T13:45:29;4.70;57.13
69546;SHT31;56766;52.260;20.746;2023-02-28T13:48:14;4.69;57.14
69546;SHT31;56766;52.260;20.746;2023-02-28T13:50:44;4.67;56.96
69546;SHT31;56766;52.260;20.746;2023-02-28T13:55:59;4.59;56.85
69546;SHT31;56766;52.260;20.746;2023-02-28T14:04:50;4.44;56.76
69546;SHT31;56766;52.260;20.746;2023-02-28T14:07:32;4.39;56.26
69546;SHT31;56766;52.260;20.746;2023-02-28T14:10:21;4.30;55.41
69546;SHT31;56766;52.260;20.746;2023-02-28T14:15:57;4.25;56.64
69546;SHT31;56766;52.260;20.746;2023-02-28T14:18:32;4.22;56.86
69546;SHT31;56766;52.260;20.746;2023-02-28T14:27:07;4.14;58.36
69546;SHT31;56766;52.260;20.746;2023-02-28T14:35:57;4.01;59.05
69546;SHT31;56766;52.260;20.746;2023-02-28T14:38:54;3.95;58.74
69546;SHT31;56766;52.260;20.746;2023-02-28T14:41:37;3.89;59.57
69546;SHT31;56766;52.260;20.746;2023-02-28T14:46:58;3.76;59.74
69546;SHT31;56766;52.260;20.746;2023-02-28T14:49:37;3.70;59.96
69546;SHT31;56766;52.260;20.746;2023-02-28T14:54:37;3.53;61.17
69546;SHT31;56766;52.260;20.746;2023-02-28T14:57:05;3.48;61.00
69546;SHT31;56766;52.260;20.746;2023-02-28T14:59:35;3.42;60.87
69546;SHT31;56766;52.260;20.746;2023-02-28T15:02:20;3.36;60.55
69546;SHT31;56766;52.260;20.746;2023-02-28T15:04:58;3.28;60.71
69546;SHT31;56766;52.260;20.746;2023-02-28T15:07:27;3.21;61.03
69546;SHT31;56766;52.260;20.746;2023-02-28T15:12:52;3.09;61.45
69546;SHT31;56766;52.260;20.746;2023-02-28T15:21:19;2.86;62.29
69546;SHT31;56766;52.260;20.746;2023-02-28T15:23:57;2.79;62.58
69546;SHT31;56766;52.260;20.746;2023-02-28T15:26:34;2.70;62.61
69546;SHT31;56766;52.260;20.746;2023-02-28T15:29:12;2.60;62.74
69546;SHT31;56766;52.260;20.746;2023-02-28T15:31:50;2.53;62.91
69546;SHT31;56766;52.260;20.746;2023-02-28T15:34:28;2.43;62.94
69546;SHT31;56766;52.260;20.746;2023-02-28T15:37:01;2.35;63.27
69546;SHT31;56766;52.260;20.746;2023-02-28T15:39:42;2.27;63.61
69546;SHT31;56766;52.260;20.746;2023-02-28T15:42:12;2.18;63.86
69546;SHT31;56766;52.260;20.746;2023-02-28T15:44:45;2.07;63.99
69546;SHT31;56766;52.260;20.746;2023-02-28T15:47:19;1.96;64.17
69546;SHT31;56766;52.260;20.746;2023-02-28T15:50:03;1.85;64.53
69546;SHT31;56766;52.260;20.746;2023-02-28T15:52:40;1.73;64.86
69546;SHT31;56766;52.260;20.746;2023-02-28T15:55:30;1.62;65.18
69546;SHT31;56766;52.260;20.746;2023-02-28T15:58:00;1.51;65.62
69546;SHT31;56766;52.260;20.746;2023-02-28T16:00:30;1.43;65.95
69546;SHT31;56766;52.260;20.746;2023-02-28T16:02:59;1.36;66.15
69546;SHT31;56766;52.260;20.746;2023-02-28T16:05:30;1.29;66.36
69546;SHT31;56766;52.260;20.746;2023-02-28T16:08:01;1.24;66.50
69546;SHT31;56766;52.260;20.746;2023-02-28T16:10:41;1.13;66.23
69546;SHT31;56766;52.260;20.746;2023-02-28T16:13:11;1.03;65.94
69546;SHT31;56766;52.260;20.746;2023-02-28T16:15:43;0.93;65.90
69546;SHT31;56766;52.260;20.746;2023-02-28T16:18:12;0.84;65.98
69546;SHT31;56766;52.260;20.746;2023-02-28T16:20:39;0.76;66.07
69546;SHT31;56766;52.260;20.746;2023-02-28T16:23:06;0.64;66.27
69546;SHT31;56766;52.260;20.746;2023-02-28T16:25:38;0.54;66.55
69546;SHT31;56766;52.260;20.746;2023-02-28T16:28:25;0.45;66.72
69546;SHT31;56766;52.260;20.746;2023-02-28T16:30:59;0.37;66.97
69546;SHT31;56766;52.260;20.746;2023-02-28T16:33:30;0.29;67.25
69546;SHT31;56766;52.260;20.746;2023-02-28T16:35:58;0.21;67.39
69546;SHT31;56766;52.260;20.746;2023-02-28T16:38:26;0.16;67.62
69546;SHT31;56766;52.260;20.746;2023-02-28T16:40:56;0.10;67.93
69546;SHT31;56766;52.260;20.746;2023-02-28T16:43:26;0.03;68.23
69546;SHT31;56766;52.260;20.746;2023-02-28T16:45:57;-0.01;68.45
69546;SHT31;56766;52.260;20.746;2023-02-28T16:48:25;-0.09;68.86
69546;SHT31;56766;52.260;20.746;2023-02-28T16:50:51;-0.14;69.11
69546;SHT31;56766;52.260;20.746;2023-02-28T16:53:18;-0.20;69.42
69546;SHT31;56766;52.260;20.746;2023-02-28T16:55:45;-0.27;69.69
69546;SHT31;56766;52.260;20.746;2023-02-28T16:58:16;-0.39;69.90
69546;SHT31;56766;52.260;20.746;2023-02-28T17:00:44;-0.49;69.99
69546;SHT31;56766;52.260;20.746;2023-02-28T17:03:25;-0.63;70.15
69546;SHT31;56766;52.260;20.746;2023-02-28T17:05:54;-0.76;70.37
69546;SHT31;56766;52.260;20.746;2023-02-28T17:08:21;-0.82;70.51
69546;SHT31;56766;52.260;20.746;2023-02-28T17:10:48;-0.89;70.64
69546;SHT31;56766;52.260;20.746;2023-02-28T17:13:15;-0.99;70.95
69546;SHT31;56766;52.260;20.746;2023-02-28T17:15:44;-1.05;71.14
69546;SHT31;56766;52.260;20.746;2023-02-28T17:18:18;-1.08;71.36
69546;SHT31;56766;52.260;20.746;2023-02-28T17:20:47;-1.12;71.51
69546;SHT31;56766;52.260;20.746;2023-02-28T17:23:15;-1.14;71.59
69546;SHT31;56766;52.260;20.746;2023-02-28T17:25:42;-1.18;71.72
69546;SHT31;56766;52.260;20.746;2023-02-28T17:28:21;-1.26;71.92
69546;SHT31;56766;52.260;20.746;2023-02-28T17:30:48;-1.29;71.87
69546;SHT31;56766;52.260;20.746;2023-02-28T17:33:15;-1.32;71.70
69546;SHT31;56766;52.260;20.746;2023-02-28T17:35:42;-1.32;71.59
69546;SHT31;56766;52.260;20.746;2023-02-28T17:38:18;-1.32;71.43
69546;SHT31;56766;52.260;20.746;2023-02-28T17:40:45;-1.30;71.35
69546;SHT31;56766;52.260;20.746;2023-02-28T17:43:12;-1.28;71.20
69546;SHT31;56766;52.260;20.746;2023-02-28T17:45:41;-1.27;71.20
69546;SHT31;56766;52.260;20.746;2023-02-28T17:48:10;-1.27;71.21
69546;SHT31;56766;52.260;20.746;2023-02-28T17:50:39;-1.28;71.20
69546;SHT31;56766;52.260;20.746;2023-02-28T17:53:06;-1.31;71.20
69546;SHT31;56766;52.260;20.746;2023-02-28T17:55:33;-1.34;71.42
69546;SHT31;56766;52.260;20.746;2023-02-28T17:58:01;-1.37;71.50
69546;SHT31;56766;52.260;20.746;2023-02-28T18:00:29;-1.39;71.63
69546;SHT31;56766;52.260;20.746;2023-02-28T18:02:58;-1.40;72.00
69546;SHT31;56766;52.260;20.746;2023-02-28T18:05:25;-1.42;72.37
69546;SHT31;56766;52.260;20.746;2023-02-28T18:07:52;-1.44;72.74
69546;SHT31;56766;52.260;20.746;2023-02-28T18:10:20;-1.43;73.09
69546;SHT31;56766;52.260;20.746;2023-02-28T18:12:51;-1.44;73.23